NDF4TP ENCN-EDDH
Flight info
| Callsign | NDF4TP |
|---|---|
| Flight time | N/A |
| Altitude | 37000 |
| Route | AMSEV7B AMSEV DCT ALASA M852 EKERN T905 BOGMU BOGMU3P |
| Aircraft | B38M/M-SDE1FGHILORVWXY/HB1 |
Departure
| Time | N/A |
|---|---|
| Airport | Kristiansand Airport (ENCN) |
Arrival
| Time | 2026-05-04 20:47 |
|---|---|
| Airport | Hamburg Helmut Schmidt Airport (EDDH) |
| Time | Latitude | Longitude | Altitude | Speed | Heading |
|---|---|---|---|---|---|
| 2026-05-04 20:13 | 56.62941 | 9.24603 | 34973 ft | 462 kts | 172° |
| 2026-05-04 20:14 | 56.56677 | 9.27182 | 34978 ft | 461 kts | 172° |
| 2026-05-04 20:14 | 56.50410 | 9.29753 | 34984 ft | 461 kts | 172° |
| 2026-05-04 20:15 | 56.44155 | 9.32310 | 34983 ft | 460 kts | 171° |
| 2026-05-04 20:15 | 56.37913 | 9.34854 | 34991 ft | 460 kts | 171° |
| 2026-05-04 20:16 | 56.31669 | 9.37390 | 34992 ft | 460 kts | 171° |
| 2026-05-04 20:16 | 56.25432 | 9.39914 | 34991 ft | 460 kts | 171° |
| 2026-05-04 20:17 | 56.19184 | 9.42435 | 34977 ft | 460 kts | 171° |
| 2026-05-04 20:17 | 56.12957 | 9.44938 | 34989 ft | 460 kts | 171° |
| 2026-05-04 20:18 | 56.06762 | 9.47420 | 34993 ft | 459 kts | 171° |
| 2026-05-04 20:18 | 56.00516 | 9.49915 | 34991 ft | 459 kts | 171° |
| 2026-05-04 20:19 | 55.94277 | 9.52399 | 34993 ft | 459 kts | 171° |
| 2026-05-04 20:19 | 55.88055 | 9.54871 | 34990 ft | 458 kts | 171° |
| 2026-05-04 20:20 | 55.81833 | 9.57328 | 34989 ft | 458 kts | 171° |
| 2026-05-04 20:20 | 55.75600 | 9.59785 | 34990 ft | 458 kts | 171° |
| 2026-05-04 20:21 | 55.69375 | 9.62231 | 34994 ft | 458 kts | 171° |
| 2026-05-04 20:21 | 55.60037 | 9.65885 | 34736 ft | 458 kts | 171° |
| 2026-05-04 20:22 | 55.56935 | 9.67137 | 34289 ft | 457 kts | 169° |
| 2026-05-04 20:22 | 55.53842 | 9.68439 | 33784 ft | 457 kts | 169° |
| 2026-05-04 20:22 | 55.50747 | 9.69729 | 33239 ft | 457 kts | 169° |
| 2026-05-04 20:22 | 55.47650 | 9.71015 | 32706 ft | 458 kts | 170° |
| 2026-05-04 20:23 | 55.44538 | 9.72305 | 32179 ft | 458 kts | 170° |
| 2026-05-04 20:23 | 55.41469 | 9.73574 | 31668 ft | 459 kts | 170° |
| 2026-05-04 20:23 | 55.38366 | 9.74855 | 31147 ft | 460 kts | 170° |
| 2026-05-04 20:23 | 55.35256 | 9.76135 | 30655 ft | 459 kts | 170° |
| 2026-05-04 20:24 | 55.32144 | 9.77415 | 30156 ft | 460 kts | 171° |
| 2026-05-04 20:24 | 55.29029 | 9.78696 | 29607 ft | 461 kts | 171° |
| 2026-05-04 20:24 | 55.25898 | 9.79981 | 29032 ft | 462 kts | 171° |
| 2026-05-04 20:24 | 55.22761 | 9.81266 | 28476 ft | 464 kts | 171° |
| 2026-05-04 20:25 | 55.19616 | 9.82551 | 27924 ft | 465 kts | 171° |
| 2026-05-04 20:25 | 55.16459 | 9.83839 | 27393 ft | 466 kts | 170° |
| 2026-05-04 20:25 | 55.13288 | 9.85132 | 26768 ft | 467 kts | 170° |
| 2026-05-04 20:25 | 55.10157 | 9.86407 | 25981 ft | 454 kts | 171° |
| 2026-05-04 20:26 | 55.07136 | 9.87634 | 25263 ft | 438 kts | 171° |
| 2026-05-04 20:26 | 55.04211 | 9.88821 | 24545 ft | 426 kts | 172° |
| 2026-05-04 20:26 | 55.01365 | 9.89974 | 23855 ft | 415 kts | 171° |
| 2026-05-04 20:26 | 54.98590 | 9.91096 | 23086 ft | 405 kts | 171° |
| 2026-05-04 20:27 | 54.95859 | 9.92198 | 22268 ft | 397 kts | 171° |
| 2026-05-04 20:27 | 54.93191 | 9.93273 | 21618 ft | 387 kts | 171° |
| 2026-05-04 20:27 | 54.90622 | 9.94307 | 21110 ft | 375 kts | 171° |
| 2026-05-04 20:27 | 54.88113 | 9.95317 | 20610 ft | 365 kts | 171° |
| 2026-05-04 20:28 | 54.85708 | 9.96283 | 20114 ft | 356 kts | 171° |
| 2026-05-04 20:28 | 54.83326 | 9.97239 | 19601 ft | 347 kts | 172° |
| 2026-05-04 20:28 | 54.81001 | 9.98171 | 19128 ft | 339 kts | 172° |
| 2026-05-04 20:28 | 54.78718 | 9.99085 | 18648 ft | 333 kts | 172° |
| 2026-05-04 20:29 | 54.76478 | 9.99980 | 18163 ft | 328 kts | 171° |
| 2026-05-04 20:29 | 54.74272 | 10.00860 | 17622 ft | 323 kts | 172° |
| 2026-05-04 20:29 | 54.72085 | 10.01732 | 17092 ft | 320 kts | 172° |
| 2026-05-04 20:29 | 54.69919 | 10.02595 | 16571 ft | 318 kts | 172° |
| 2026-05-04 20:30 | 54.67769 | 10.03451 | 16029 ft | 317 kts | 172° |
| 2026-05-04 20:30 | 54.65616 | 10.04307 | 15391 ft | 317 kts | 172° |
| 2026-05-04 20:30 | 54.63467 | 10.05160 | 14760 ft | 316 kts | 172° |
| 2026-05-04 20:30 | 54.61329 | 10.06009 | 14162 ft | 315 kts | 172° |
| 2026-05-04 20:31 | 54.59191 | 10.06855 | 13537 ft | 314 kts | 172° |
| 2026-05-04 20:31 | 54.57062 | 10.07699 | 12863 ft | 313 kts | 172° |
| 2026-05-04 20:31 | 54.54950 | 10.08534 | 12217 ft | 310 kts | 172° |
| 2026-05-04 20:31 | 54.52850 | 10.09364 | 11590 ft | 308 kts | 171° |
| 2026-05-04 20:32 | 54.50767 | 10.10186 | 10976 ft | 306 kts | 171° |
| 2026-05-04 20:32 | 54.48702 | 10.11000 | 10374 ft | 304 kts | 171° |
| 2026-05-04 20:32 | 54.46670 | 10.11803 | 10103 ft | 294 kts | 171° |
| 2026-05-04 20:32 | 54.44699 | 10.12578 | 10051 ft | 288 kts | 172° |
| 2026-05-04 20:33 | 54.42767 | 10.13336 | 10016 ft | 288 kts | 172° |
| 2026-05-04 20:33 | 54.40789 | 10.14111 | 10010 ft | 288 kts | 172° |
| 2026-05-04 20:33 | 54.38836 | 10.14877 | 9994 ft | 288 kts | 172° |
| 2026-05-04 20:33 | 54.36903 | 10.15634 | 9991 ft | 288 kts | 172° |
| 2026-05-04 20:34 | 54.34947 | 10.16400 | 9994 ft | 288 kts | 172° |
| 2026-05-04 20:34 | 54.32990 | 10.17165 | 9992 ft | 289 kts | 172° |
| 2026-05-04 20:34 | 54.31032 | 10.17931 | 9988 ft | 288 kts | 171° |
| 2026-05-04 20:34 | 54.29081 | 10.18694 | 9979 ft | 288 kts | 171° |
| 2026-05-04 20:35 | 54.27125 | 10.19456 | 9993 ft | 288 kts | 171° |
| 2026-05-04 20:35 | 54.25172 | 10.20216 | 9993 ft | 288 kts | 171° |
| 2026-05-04 20:35 | 54.23221 | 10.20975 | 9989 ft | 289 kts | 171° |
| 2026-05-04 20:35 | 54.21265 | 10.21735 | 9991 ft | 288 kts | 171° |
| 2026-05-04 20:36 | 54.19310 | 10.22495 | 9998 ft | 288 kts | 171° |
| 2026-05-04 20:36 | 54.17364 | 10.23250 | 9991 ft | 288 kts | 171° |
| 2026-05-04 20:36 | 54.15398 | 10.23923 | 9928 ft | 288 kts | 174° |
| 2026-05-04 20:36 | 54.13414 | 10.24519 | 9291 ft | 290 kts | 174° |
| 2026-05-04 20:37 | 54.11420 | 10.25115 | 8735 ft | 292 kts | 174° |
| 2026-05-04 20:37 | 54.09420 | 10.25716 | 8351 ft | 291 kts | 174° |
| 2026-05-04 20:37 | 54.07429 | 10.26320 | 7972 ft | 291 kts | 174° |
| 2026-05-04 20:37 | 54.05441 | 10.26930 | 7589 ft | 290 kts | 174° |
| 2026-05-04 20:38 | 54.03454 | 10.27515 | 7223 ft | 290 kts | 174° |
| 2026-05-04 20:38 | 54.01464 | 10.28092 | 6862 ft | 289 kts | 174° |
| 2026-05-04 20:38 | 53.99486 | 10.28666 | 6491 ft | 288 kts | 174° |
| 2026-05-04 20:38 | 53.97507 | 10.29239 | 6120 ft | 288 kts | 174° |
| 2026-05-04 20:39 | 53.95532 | 10.29803 | 5747 ft | 288 kts | 174° |
| 2026-05-04 20:39 | 53.93560 | 10.30357 | 5376 ft | 287 kts | 174° |
| 2026-05-04 20:39 | 53.91596 | 10.30898 | 4984 ft | 282 kts | 174° |
| 2026-05-04 20:39 | 53.89693 | 10.31419 | 4618 ft | 273 kts | 174° |
| 2026-05-04 20:40 | 53.87845 | 10.31911 | 4226 ft | 264 kts | 175° |
| 2026-05-04 20:40 | 53.86072 | 10.31722 | 3840 ft | 251 kts | 199° |
| 2026-05-04 20:40 | 53.84459 | 10.30726 | 3462 ft | 243 kts | 204° |
| 2026-05-04 20:40 | 53.82906 | 10.29674 | 3122 ft | 236 kts | 204° |
| 2026-05-04 20:41 | 53.81427 | 10.28665 | 3083 ft | 225 kts | 204° |
| 2026-05-04 20:41 | 53.80041 | 10.27727 | 3049 ft | 207 kts | 204° |
| 2026-05-04 20:41 | 53.78716 | 10.26821 | 2998 ft | 205 kts | 204° |
| 2026-05-04 20:41 | 53.77406 | 10.25929 | 2976 ft | 197 kts | 204° |
| 2026-05-04 20:42 | 53.76203 | 10.25027 | 2961 ft | 185 kts | 214° |
| 2026-05-04 20:42 | 53.75252 | 10.23616 | 2985 ft | 181 kts | 231° |
| 2026-05-04 20:42 | 53.74456 | 10.21974 | 3037 ft | 181 kts | 232° |
| 2026-05-04 20:42 | 53.73655 | 10.20331 | 3041 ft | 181 kts | 232° |
| 2026-05-04 20:43 | 53.72852 | 10.18695 | 3008 ft | 181 kts | 231° |
| 2026-05-04 20:43 | 53.72049 | 10.17064 | 2962 ft | 182 kts | 231° |
| 2026-05-04 20:43 | 53.71238 | 10.15428 | 2609 ft | 180 kts | 231° |
| 2026-05-04 20:43 | 53.70459 | 10.13868 | 2268 ft | 170 kts | 232° |
| 2026-05-04 20:44 | 53.69727 | 10.12384 | 1980 ft | 159 kts | 232° |
| 2026-05-04 20:44 | 53.69034 | 10.10974 | 1647 ft | 153 kts | 233° |
| 2026-05-04 20:44 | 53.68383 | 10.09639 | 1459 ft | 142 kts | 232° |
| 2026-05-04 20:44 | 53.67750 | 10.08377 | 1413 ft | 141 kts | 233° |
| 2026-05-04 20:45 | 53.67124 | 10.07121 | 1249 ft | 140 kts | 233° |
| 2026-05-04 20:45 | 53.66498 | 10.05845 | 1043 ft | 141 kts | 233° |
| 2026-05-04 20:45 | 53.65885 | 10.04585 | 822 ft | 141 kts | 232° |
| 2026-05-04 20:45 | 53.65241 | 10.03299 | 630 ft | 144 kts | 232° |
| 2026-05-04 20:46 | 53.64609 | 10.02030 | 422 ft | 139 kts | 234° |
| 2026-05-04 20:46 | 53.64007 | 10.00799 | 241 ft | 139 kts | 232° |
| 2026-05-04 20:46 | 53.63400 | 9.99567 | 60 ft | 135 kts | 233° |
| 2026-05-04 20:46 | 53.62909 | 9.98561 | 47 ft | 76 kts | 230° |
| 2026-05-04 20:47 | 53.62633 | 9.98007 | 44 ft | 41 kts | 230° |
| 2026-05-04 20:47 | 53.62522 | 9.97803 | 43 ft | 18 kts | 208° |
| 2026-05-04 20:47 | 53.62428 | 9.97885 | 47 ft | 17 kts | 97° |
| 2026-05-04 20:47 | 53.62447 | 9.98085 | 49 ft | 18 kts | 78° |
| 2026-05-04 20:48 | 53.62474 | 9.98311 | 49 ft | 21 kts | 79° |
| 2026-05-04 20:48 | 53.62502 | 9.98566 | 48 ft | 23 kts | 79° |
| 2026-05-04 20:48 | 53.62535 | 9.98847 | 49 ft | 26 kts | 79° |
| 2026-05-04 20:48 | 53.62570 | 9.99154 | 49 ft | 28 kts | 79° |
| 2026-05-04 20:49 | 53.62607 | 9.99478 | 49 ft | 30 kts | 79° |
| 2026-05-04 20:49 | 53.62633 | 9.99712 | 49 ft | 10 kts | 79° |
| 2026-05-04 20:49 | 53.62639 | 9.99755 | 49 ft | 4 kts | 73° |
| 2026-05-04 20:49 | 53.62672 | 9.99836 | 48 ft | 14 kts | 39° |
| 2026-05-04 20:50 | 53.62776 | 9.99934 | 47 ft | 17 kts | 28° |
| 2026-05-04 20:50 | 53.62852 | 10.00016 | 51 ft | 13 kts | 40° |
| 2026-05-04 20:50 | 53.62923 | 10.00107 | 49 ft | 12 kts | 33° |
| 2026-05-04 20:50 | 53.62966 | 10.00153 | 50 ft | 5 kts | 33° |
| 2026-05-04 20:51 | 53.62974 | 10.00206 | 51 ft | 5 kts | 117° |
| 2026-05-04 20:51 | 53.62954 | 10.00257 | 51 ft | 6 kts | 122° |
| 2026-05-04 20:51 | 53.62943 | 10.00287 | 51 ft | 2 kts | 122° |
| 2026-05-04 20:51 | 53.62942 | 10.00288 | 51 ft | 0 kts | 122° |